createdAt,value
2023-02-16T00:02:17.127Z,1.59
2023-02-16T00:04:47.859Z,1.83
2023-02-16T00:07:18.255Z,1.89
2023-02-16T00:09:50.266Z,1.43
2023-02-16T00:12:39.976Z,1.65
2023-02-16T00:15:18.941Z,1.61
2023-02-16T00:17:49.611Z,1.68
2023-02-16T00:20:21.191Z,1.70
2023-02-16T00:22:51.174Z,1.79
2023-02-16T00:25:22.682Z,2.00
2023-02-16T00:27:53.705Z,2.17
2023-02-16T00:30:25.590Z,1.97
2023-02-16T00:32:55.701Z,1.68
2023-02-16T00:35:26.543Z,1.23
2023-02-16T00:37:56.237Z,1.74
2023-02-16T00:40:27.831Z,1.66
2023-02-16T00:42:57.694Z,1.26
2023-02-16T00:45:27.444Z,1.14
2023-02-16T00:47:58.195Z,1.96
2023-02-16T00:50:30.636Z,1.88
2023-02-16T00:53:00.874Z,1.45
2023-02-16T00:55:35.365Z,1.69
2023-02-16T00:58:09.263Z,1.66
2023-02-16T01:00:40.012Z,1.72
2023-02-16T01:03:13.761Z,1.73
2023-02-16T01:05:44.410Z,1.77
2023-02-16T01:08:33.575Z,1.86
2023-02-16T01:11:10.547Z,1.74
2023-02-16T01:13:44.488Z,1.69
2023-02-16T01:16:16.841Z,1.32
2023-02-16T01:18:48.744Z,1.45
2023-02-16T01:21:20.018Z,1.42
2023-02-16T01:23:50.822Z,1.41
2023-02-16T01:26:23.083Z,1.31
2023-02-16T01:28:53.400Z,1.43
2023-02-16T01:31:23.897Z,1.61
2023-02-16T01:33:55.612Z,1.38
2023-02-16T01:36:28.790Z,1.35
2023-02-16T01:38:59.242Z,1.23
2023-02-16T01:41:44.768Z,1.48
2023-02-16T01:44:18.213Z,1.29
2023-02-16T01:46:53.156Z,1.30
2023-02-16T01:49:24.394Z,1.56
2023-02-16T01:51:59.648Z,1.23
2023-02-16T01:54:38.300Z,1.14
2023-02-16T01:57:19.600Z,1.30
2023-02-16T02:00:10.318Z,1.02
2023-02-16T02:02:43.315Z,1.26
2023-02-16T02:05:36.622Z,1.15
2023-02-16T02:08:14.791Z,1.03
2023-02-16T02:10:53.171Z,1.11
2023-02-16T02:13:31.114Z,1.12
2023-02-16T02:16:02.147Z,1.02
2023-02-16T02:18:33.896Z,1.23
2023-02-16T02:21:34.656Z,1.27
2023-02-16T02:24:40.144Z,1.36
2023-02-16T02:27:18.517Z,0.94
2023-02-16T02:30:30.085Z,1.11
2023-02-16T02:33:22.480Z,1.20
2023-02-16T02:35:57.972Z,1.09
2023-02-16T02:38:37.989Z,1.31
2023-02-16T02:41:14.039Z,1.54
2023-02-16T02:43:49.069Z,1.32
2023-02-16T02:46:24.966Z,1.17
2023-02-16T02:48:55.564Z,1.38
2023-02-16T02:51:30.525Z,1.06
2023-02-16T02:54:21.254Z,1.04
2023-02-16T02:57:14.434Z,0.92
2023-02-16T03:00:05.851Z,1.28
2023-02-16T03:02:38.628Z,0.79
2023-02-16T03:05:10.990Z,1.06
2023-02-16T03:07:50.414Z,1.11
2023-02-16T03:10:41.110Z,1.24
2023-02-16T03:13:15.395Z,1.22
2023-02-16T03:15:48.632Z,1.15
2023-02-16T03:18:37.056Z,1.17
2023-02-16T03:21:24.800Z,1.09
2023-02-16T03:24:11.595Z,1.06
2023-02-16T03:26:59.824Z,0.98
2023-02-16T03:29:30.865Z,1.11
2023-02-16T03:32:03.574Z,1.29
2023-02-16T03:34:34.111Z,0.89
2023-02-16T03:37:04.375Z,1.10
2023-02-16T03:39:56.754Z,1.06
2023-02-16T03:42:27.186Z,1.38
2023-02-16T03:44:57.452Z,1.38
2023-02-16T03:47:29.297Z,0.88
2023-02-16T03:49:59.758Z,1.22
2023-02-16T03:52:30.381Z,1.47
2023-02-16T03:55:01.330Z,0.70
2023-02-16T03:57:31.783Z,0.42
2023-02-16T04:00:01.973Z,0.55
2023-02-16T04:02:34.498Z,0.98
2023-02-16T04:05:05.027Z,1.18
2023-02-16T04:07:35.328Z,1.11
2023-02-16T04:10:06.059Z,1.03
2023-02-16T04:12:37.843Z,1.03
2023-02-16T04:15:10.628Z,0.61
2023-02-16T04:17:42.767Z,0.86
2023-02-16T04:20:15.324Z,1.26
2023-02-16T04:22:45.985Z,1.11
2023-02-16T04:25:17.100Z,1.27
2023-02-16T04:27:48.739Z,1.06
2023-02-16T04:30:21.274Z,1.12
2023-02-16T04:32:53.034Z,1.26
2023-02-16T04:35:23.333Z,1.01
2023-02-16T04:37:53.656Z,1.13
2023-02-16T04:40:24.101Z,0.58
2023-02-16T04:42:54.251Z,0.83
2023-02-16T04:45:24.425Z,0.61
2023-02-16T04:47:56.898Z,0.50
2023-02-16T04:50:28.086Z,0.95
2023-02-16T04:52:57.911Z,1.09
2023-02-16T04:55:28.380Z,0.78
2023-02-16T04:57:59.310Z,0.74
2023-02-16T05:00:29.472Z,0.56
2023-02-16T05:03:02.210Z,0.72
2023-02-16T05:05:35.570Z,0.44
2023-02-16T05:08:06.784Z,0.60
2023-02-16T05:10:36.612Z,0.06
2023-02-16T05:13:24.580Z,0.62
2023-02-16T05:15:54.678Z,0.35
2023-02-16T05:18:27.350Z,0.51
2023-02-16T05:21:17.570Z,0.36
2023-02-16T05:23:47.912Z,0.85
2023-02-16T05:26:18.024Z,0.75
2023-02-16T05:28:49.370Z,0.51
2023-02-16T05:31:20.024Z,0.85
2023-02-16T05:33:51.768Z,0.58
2023-02-16T05:36:22.029Z,0.61
2023-02-16T05:38:52.622Z,-0.01
2023-02-16T05:41:25.901Z,0.78
2023-02-16T05:43:58.383Z,0.85
2023-02-16T05:46:29.818Z,0.49
2023-02-16T05:49:02.755Z,0.73
2023-02-16T05:51:32.768Z,0.69
2023-02-16T05:54:04.616Z,0.03
2023-02-16T05:56:35.071Z,0.81
2023-02-16T05:59:05.705Z,0.73
2023-02-16T06:01:35.616Z,0.88
2023-02-16T06:04:08.264Z,0.99
2023-02-16T06:06:39.903Z,0.80
2023-02-16T06:09:11.786Z,0.45
2023-02-16T06:11:41.676Z,0.57
2023-02-16T06:14:14.373Z,1.22
2023-02-16T06:16:47.840Z,1.03
2023-02-16T06:19:21.076Z,1.04
2023-02-16T06:21:51.674Z,0.21
2023-02-16T06:24:22.201Z,0.76
2023-02-16T06:26:52.502Z,0.70
2023-02-16T06:29:22.665Z,0.61
2023-02-16T06:31:53.064Z,0.38
2023-02-16T06:34:25.217Z,0.73
2023-02-16T06:36:55.344Z,0.79
2023-02-16T06:39:25.687Z,0.66
2023-02-16T06:41:55.641Z,0.57
2023-02-16T06:44:25.882Z,0.84
2023-02-16T06:46:55.718Z,0.76
2023-02-16T06:49:28.743Z,0.55
2023-02-16T06:51:58.459Z,0.96
2023-02-16T06:54:28.808Z,1.13
2023-02-16T06:57:01.616Z,0.74
2023-02-16T06:59:31.612Z,1.25
2023-02-16T07:02:02.339Z,1.21
2023-02-16T07:04:35.026Z,0.43
2023-02-16T07:07:05.302Z,1.05
2023-02-16T07:09:37.684Z,1.41
2023-02-16T07:12:09.396Z,1.37
2023-02-16T07:14:39.966Z,1.62
2023-02-16T07:17:10.269Z,1.48
2023-02-16T07:19:41.751Z,1.17
2023-02-16T07:22:11.483Z,1.63
2023-02-16T07:24:41.779Z,2.01
2023-02-16T07:27:11.539Z,1.75
2023-02-16T07:29:41.967Z,1.80
2023-02-16T07:32:11.607Z,1.84
2023-02-16T07:34:43.058Z,1.64
2023-02-16T07:37:13.101Z,1.41
2023-02-16T07:39:43.611Z,1.55
2023-02-16T07:42:13.676Z,1.94
2023-02-16T07:44:43.734Z,2.23
2023-02-16T07:47:15.392Z,1.65
2023-02-16T07:49:47.858Z,1.49
2023-02-16T07:52:17.719Z,1.93
2023-02-16T07:54:49.108Z,1.80
2023-02-16T07:57:19.811Z,2.35
2023-02-16T07:59:53.737Z,2.27
2023-02-16T08:02:27.717Z,1.62
2023-02-16T08:05:00.308Z,1.92
2023-02-16T08:07:30.695Z,1.65
2023-02-16T08:10:01.527Z,2.25
2023-02-16T08:12:31.467Z,2.31
2023-02-16T08:15:01.514Z,1.85
2023-02-16T08:17:31.664Z,2.38
2023-02-16T08:20:04.161Z,2.90
2023-02-16T08:22:34.368Z,2.94
2023-02-16T08:25:07.152Z,2.92
2023-02-16T08:27:38.248Z,2.97
2023-02-16T08:30:13.578Z,3.15
2023-02-16T08:32:44.254Z,3.23
2023-02-16T08:35:16.358Z,2.80
2023-02-16T08:37:45.919Z,2.78
2023-02-16T08:40:18.572Z,3.33
2023-02-16T08:42:49.059Z,3.52
2023-02-16T08:45:20.004Z,3.07
2023-02-16T08:47:54.007Z,3.32
2023-02-16T08:50:25.201Z,3.18
2023-02-16T08:52:55.454Z,3.47
2023-02-16T08:55:25.856Z,3.37
2023-02-16T08:57:55.758Z,3.34
2023-02-16T09:00:38.770Z,3.49
2023-02-16T09:03:09.200Z,3.25
2023-02-16T09:05:42.797Z,3.56
2023-02-16T09:08:12.423Z,3.66
2023-02-16T09:10:43.705Z,3.38
2023-02-16T09:13:17.220Z,3.62
2023-02-16T09:15:48.597Z,4.07
2023-02-16T09:18:19.348Z,3.94
2023-02-16T09:20:52.185Z,4.29
2023-02-16T09:23:22.768Z,4.24
2023-02-16T09:25:53.334Z,4.19
2023-02-16T09:28:23.200Z,3.93
2023-02-16T09:30:54.472Z,4.14
2023-02-16T09:33:24.151Z,4.25
2023-02-16T09:35:55.872Z,4.38
2023-02-16T09:38:25.774Z,4.36
2023-02-16T09:40:56.856Z,4.51
2023-02-16T09:43:37.742Z,4.68
2023-02-16T09:46:13.427Z,4.79
2023-02-16T09:48:46.148Z,4.62
2023-02-16T09:51:29.494Z,5.00
2023-02-16T09:54:10.062Z,4.94
2023-02-16T09:56:44.235Z,4.85
2023-02-16T09:59:18.811Z,4.98
2023-02-16T10:01:57.028Z,5.16
2023-02-16T10:04:39.315Z,5.32
2023-02-16T10:07:33.291Z,5.49
2023-02-16T10:10:04.166Z,5.68
2023-02-16T10:12:42.250Z,5.81
2023-02-16T10:15:18.452Z,5.85
2023-02-16T10:17:50.091Z,5.79
2023-02-16T10:20:24.111Z,5.97
2023-02-16T10:22:59.560Z,6.38
2023-02-16T10:25:36.036Z,6.93
2023-02-16T10:28:16.893Z,6.87
2023-02-16T10:30:53.021Z,6.92
2023-02-16T10:33:36.813Z,7.00
2023-02-16T10:36:18.450Z,6.99
2023-02-16T10:38:56.047Z,7.36
2023-02-16T10:41:33.322Z,7.53
2023-02-16T10:44:07.745Z,7.83
2023-02-16T10:46:42.615Z,7.67
2023-02-16T10:49:15.318Z,7.86
2023-02-16T10:51:49.416Z,8.54
2023-02-16T10:54:24.220Z,8.61
2023-02-16T10:56:57.858Z,8.86
2023-02-16T10:59:35.056Z,8.74
2023-02-16T11:02:21.073Z,9.56
2023-02-16T11:04:53.910Z,9.67
2023-02-16T11:07:27.312Z,9.24
2023-02-16T11:10:02.803Z,9.70
2023-02-16T11:12:35.503Z,9.71
2023-02-16T11:15:09.339Z,9.68
2023-02-16T11:17:51.698Z,10.01
2023-02-16T11:20:30.177Z,10.90
2023-02-16T11:23:17.466Z,11.36
2023-02-16T11:25:58.451Z,10.86
2023-02-16T11:28:32.467Z,11.34
2023-02-16T11:31:15.185Z,11.70
2023-02-16T11:33:55.907Z,11.59
2023-02-16T11:36:31.964Z,11.40
2023-02-16T11:39:05.761Z,11.43
2023-02-16T11:41:38.036Z,11.38
2023-02-16T11:44:09.338Z,11.64
2023-02-16T11:46:43.141Z,11.44
2023-02-16T11:49:34.756Z,11.54
2023-02-16T11:52:23.644Z,11.85
2023-02-16T11:54:56.139Z,13.50
2023-02-16T11:57:31.851Z,12.10
2023-02-16T12:00:03.020Z,12.21
2023-02-16T12:02:54.992Z,12.61
2023-02-16T12:05:29.226Z,12.83
2023-02-16T12:08:20.816Z,12.73
2023-02-16T12:11:09.777Z,12.88
2023-02-16T12:13:52.002Z,12.92
2023-02-16T12:16:29.246Z,12.86
2023-02-16T12:19:10.704Z,12.94
2023-02-16T12:21:45.735Z,12.64
2023-02-16T12:24:25.502Z,12.91
2023-02-16T12:26:58.563Z,13.37
2023-02-16T12:29:45.544Z,13.83
2023-02-16T12:32:33.717Z,13.97
2023-02-16T12:35:29.486Z,13.85
2023-02-16T12:38:07.090Z,13.40
2023-02-16T12:40:45.945Z,13.55
2023-02-16T12:43:34.714Z,13.67
2023-02-16T12:46:12.866Z,13.61
2023-02-16T12:48:49.434Z,13.54
2023-02-16T12:51:23.900Z,13.65
2023-02-16T12:53:59.573Z,13.51
2023-02-16T12:56:33.776Z,13.46
2023-02-16T12:59:16.981Z,13.55
2023-02-16T13:01:51.261Z,13.76
2023-02-16T13:04:26.385Z,13.55
2023-02-16T13:07:01.504Z,13.61
2023-02-16T13:09:40.193Z,14.18
2023-02-16T13:12:17.567Z,14.07
2023-02-16T13:14:54.100Z,13.96
2023-02-16T13:17:30.162Z,14.06
2023-02-16T13:19:59.709Z,14.30
2023-02-16T13:22:43.182Z,14.00
2023-02-16T13:25:33.098Z,14.26
2023-02-16T13:28:12.619Z,14.57
2023-02-16T13:31:02.610Z,14.44
2023-02-16T13:34:04.699Z,14.81
2023-02-16T13:36:46.072Z,14.62
2023-02-16T13:39:45.011Z,14.69
2023-02-16T13:42:47.430Z,14.19
2023-02-16T13:45:21.214Z,14.19
2023-02-16T13:47:51.846Z,13.96
2023-02-16T13:50:33.684Z,14.15
2023-02-16T13:53:20.951Z,13.93
2023-02-16T13:55:53.021Z,13.66
2023-02-16T13:58:33.252Z,13.75
2023-02-16T14:01:42.625Z,14.03
2023-02-16T14:04:16.800Z,14.10
2023-02-16T14:06:48.906Z,13.80
2023-02-16T14:09:51.527Z,13.86
2023-02-16T14:12:24.575Z,13.62
2023-02-16T14:15:02.962Z,13.70
2023-02-16T14:17:35.856Z,13.74
2023-02-16T14:20:09.833Z,13.63
2023-02-16T14:22:50.118Z,13.36
2023-02-16T14:25:39.915Z,13.35
2023-02-16T14:28:55.192Z,13.22
2023-02-16T14:31:27.688Z,13.14
2023-02-16T14:34:07.610Z,13.31
2023-02-16T14:36:37.867Z,13.45
2023-02-16T14:39:13.672Z,13.32
2023-02-16T14:41:45.294Z,12.93
2023-02-16T14:44:33.206Z,12.76
2023-02-16T14:47:14.191Z,12.78
2023-02-16T14:50:14.322Z,12.68
2023-02-16T14:53:24.544Z,13.09
2023-02-16T14:56:14.210Z,12.76
2023-02-16T14:58:53.914Z,12.87
2023-02-16T15:01:24.835Z,12.70
2023-02-16T15:03:58.194Z,12.39
2023-02-16T15:06:34.307Z,12.24
2023-02-16T15:09:10.026Z,12.19
2023-02-16T15:11:59.354Z,12.53
2023-02-16T15:14:30.391Z,12.14
2023-02-16T15:17:01.703Z,12.18
2023-02-16T15:19:34.581Z,11.96
2023-02-16T15:22:17.974Z,11.73
2023-02-16T15:25:00.390Z,11.67
2023-02-16T15:27:36.472Z,11.51
2023-02-16T15:30:24.364Z,11.48
2023-02-16T15:32:57.969Z,11.32
2023-02-16T15:35:32.591Z,11.26
2023-02-16T15:38:22.324Z,10.98
2023-02-16T15:40:55.628Z,10.95
2023-02-16T15:43:33.494Z,10.88
2023-02-16T15:46:05.429Z,10.73
2023-02-16T15:48:38.490Z,10.57
2023-02-16T15:51:14.094Z,10.43
2023-02-16T15:53:54.059Z,10.32
2023-02-16T15:56:49.957Z,10.19
2023-02-16T15:59:34.289Z,10.10
2023-02-16T16:02:12.305Z,9.97
2023-02-16T16:04:44.570Z,9.77
2023-02-16T16:07:19.496Z,9.66
2023-02-16T16:09:50.441Z,9.49
2023-02-16T16:12:24.217Z,9.42
2023-02-16T16:14:58.742Z,9.24
2023-02-16T16:17:30.338Z,9.21
2023-02-16T16:20:01.674Z,9.16
2023-02-16T16:22:36.735Z,9.01
2023-02-16T16:25:30.515Z,8.95
2023-02-16T16:28:00.346Z,8.94
2023-02-16T16:30:34.657Z,8.90
2023-02-16T16:33:06.785Z,9.05
2023-02-16T16:35:40.044Z,8.75
2023-02-16T16:38:24.248Z,8.58
2023-02-16T16:40:55.812Z,8.47
2023-02-16T16:43:30.741Z,8.40
2023-02-16T16:46:16.268Z,8.35
2023-02-16T16:48:48.729Z,8.37
2023-02-16T16:51:21.838Z,8.60
2023-02-16T16:54:00.010Z,8.12
2023-02-16T16:56:31.036Z,7.97
2023-02-16T16:59:02.612Z,8.37
2023-02-16T17:01:35.295Z,8.10
2023-02-16T17:04:05.917Z,8.33
2023-02-16T17:06:36.131Z,8.30
2023-02-16T17:09:05.965Z,8.11
2023-02-16T17:11:38.371Z,8.08
2023-02-16T17:14:11.621Z,7.83
2023-02-16T17:16:44.982Z,7.69
2023-02-16T17:19:15.732Z,7.75
2023-02-16T17:21:46.206Z,8.00
2023-02-16T17:24:16.860Z,7.56
2023-02-16T17:26:46.758Z,7.46
2023-02-16T17:29:17.600Z,7.62
2023-02-16T17:31:50.613Z,7.46
2023-02-16T17:34:21.252Z,7.28
2023-02-16T17:36:51.426Z,7.04
2023-02-16T17:39:22.193Z,7.35
2023-02-16T17:41:51.722Z,7.27
2023-02-16T17:44:21.938Z,6.95
2023-02-16T17:46:54.060Z,7.29
2023-02-16T17:49:24.034Z,7.12
2023-02-16T17:51:54.273Z,7.19
2023-02-16T17:54:24.784Z,6.89
2023-02-16T17:56:55.550Z,6.80
2023-02-16T17:59:30.137Z,6.72
2023-02-16T18:02:02.565Z,7.06
2023-02-16T18:04:32.823Z,6.54
2023-02-16T18:07:03.481Z,6.47
2023-02-16T18:09:34.145Z,6.20
2023-02-16T18:12:04.873Z,6.00
2023-02-16T18:14:36.153Z,6.52
2023-02-16T18:17:09.130Z,6.18
2023-02-16T18:19:39.770Z,5.99
2023-02-16T18:22:10.730Z,6.07
2023-02-16T18:24:43.324Z,5.95
2023-02-16T18:27:15.439Z,5.89
2023-02-16T18:29:46.529Z,6.06
2023-02-16T18:32:19.341Z,6.21
2023-02-16T18:34:49.897Z,6.05
2023-02-16T18:37:20.509Z,6.07
2023-02-16T18:39:51.351Z,6.10
2023-02-16T18:42:21.680Z,5.89
2023-02-16T18:44:52.322Z,6.32
2023-02-16T18:47:25.036Z,6.18
2023-02-16T18:49:56.660Z,6.14
2023-02-16T18:52:29.468Z,6.08
2023-02-16T18:55:02.841Z,5.87
2023-02-16T18:57:33.868Z,5.41
2023-02-16T19:00:05.569Z,5.52
2023-02-16T19:02:38.100Z,5.79
2023-02-16T19:05:10.098Z,5.90
2023-02-16T19:07:40.764Z,5.66
2023-02-16T19:10:12.492Z,5.44
2023-02-16T19:12:43.999Z,5.61
2023-02-16T19:15:18.017Z,5.41
2023-02-16T19:17:49.855Z,5.32
2023-02-16T19:20:20.501Z,5.01
2023-02-16T19:22:52.155Z,5.17
2023-02-16T19:25:24.136Z,5.03
2023-02-16T19:28:02.303Z,4.79
2023-02-16T19:30:32.961Z,4.97
2023-02-16T19:33:05.415Z,4.95
2023-02-16T19:35:36.177Z,5.07
2023-02-16T19:38:07.016Z,5.23
2023-02-16T19:40:37.480Z,5.09
2023-02-16T19:43:07.964Z,4.64
2023-02-16T19:45:46.583Z,5.16
2023-02-16T19:48:29.838Z,4.67
2023-02-16T19:51:00.587Z,4.88
2023-02-16T19:53:31.163Z,5.07
2023-02-16T19:56:02.933Z,4.92
2023-02-16T19:58:34.146Z,4.50
2023-02-16T20:01:17.726Z,4.96
2023-02-16T20:03:51.806Z,4.62
2023-02-16T20:06:24.823Z,4.49
2023-02-16T20:08:55.393Z,4.22
2023-02-16T20:11:27.592Z,4.22
2023-02-16T20:13:58.844Z,4.31
2023-02-16T20:16:29.862Z,3.89
2023-02-16T20:19:02.640Z,4.43
2023-02-16T20:21:33.713Z,3.94
2023-02-16T20:24:06.001Z,4.40
2023-02-16T20:26:37.500Z,4.53
2023-02-16T20:29:09.075Z,4.45
2023-02-16T20:31:40.889Z,4.58
2023-02-16T20:34:13.808Z,3.85
2023-02-16T20:36:45.227Z,4.15
2023-02-16T20:39:17.613Z,3.95
2023-02-16T20:41:48.914Z,4.13
2023-02-16T20:44:22.961Z,4.61
2023-02-16T20:46:55.390Z,4.10
2023-02-16T20:49:27.363Z,4.22
2023-02-16T20:51:57.740Z,4.15
2023-02-16T20:54:29.091Z,4.15
2023-02-16T20:56:59.243Z,4.22
2023-02-16T20:59:33.083Z,4.11
2023-02-16T21:02:05.780Z,3.61
2023-02-16T21:04:39.500Z,3.95
2023-02-16T21:07:10.927Z,3.58
2023-02-16T21:09:41.530Z,3.77
2023-02-16T21:12:11.747Z,4.23
2023-02-16T21:14:42.355Z,3.77
2023-02-16T21:17:13.070Z,3.94
2023-02-16T21:19:45.515Z,3.63
2023-02-16T21:22:16.006Z,3.49
2023-02-16T21:24:46.403Z,3.74
2023-02-16T21:27:18.053Z,4.31
2023-02-16T21:29:49.140Z,3.84
2023-02-16T21:32:19.651Z,3.93
2023-02-16T21:34:51.290Z,3.67
2023-02-16T21:37:22.225Z,3.43
2023-02-16T21:40:14.138Z,3.44
2023-02-16T21:42:45.070Z,3.77
2023-02-16T21:45:15.547Z,3.76
2023-02-16T21:48:04.474Z,3.59
2023-02-16T21:50:41.918Z,3.33
2023-02-16T21:53:12.686Z,4.13
2023-02-16T21:56:00.436Z,3.56
2023-02-16T21:58:35.094Z,3.01
2023-02-16T22:01:05.773Z,3.24
2023-02-16T22:03:37.336Z,3.69
2023-02-16T22:06:11.676Z,3.60
2023-02-16T22:08:41.666Z,3.42
2023-02-16T22:11:13.321Z,3.72
2023-02-16T22:13:43.988Z,3.42
2023-02-16T22:16:17.522Z,3.73
2023-02-16T22:18:47.918Z,3.73
2023-02-16T22:21:20.326Z,3.59
2023-02-16T22:23:51.289Z,3.34
2023-02-16T22:26:25.845Z,3.82
2023-02-16T22:28:57.219Z,3.22
2023-02-16T22:31:28.908Z,3.96
2023-02-16T22:34:00.201Z,3.55
2023-02-16T22:36:33.218Z,3.12
2023-02-16T22:39:03.923Z,3.33
2023-02-16T22:41:35.621Z,3.95
2023-02-16T22:44:06.126Z,3.97
2023-02-16T22:46:36.278Z,3.90
2023-02-16T22:49:06.342Z,3.98
2023-02-16T22:51:38.946Z,4.11
2023-02-16T22:54:10.246Z,4.11
2023-02-16T22:56:41.031Z,3.94
2023-02-16T22:59:13.702Z,3.71
2023-02-16T23:01:43.686Z,3.71
2023-02-16T23:04:17.934Z,4.02
2023-02-16T23:06:50.487Z,3.78
2023-02-16T23:09:22.425Z,3.57
2023-02-16T23:11:52.800Z,3.47
2023-02-16T23:14:23.139Z,3.49
2023-02-16T23:16:54.900Z,3.76
2023-02-16T23:19:27.182Z,3.45
2023-02-16T23:21:59.516Z,3.78
2023-02-16T23:24:30.572Z,3.53
2023-02-16T23:27:01.003Z,3.50
2023-02-16T23:29:31.991Z,3.53
2023-02-16T23:32:01.951Z,3.77
2023-02-16T23:34:32.265Z,3.90
2023-02-16T23:37:05.359Z,3.64
2023-02-16T23:39:35.620Z,3.62
2023-02-16T23:42:05.803Z,3.73
2023-02-16T23:44:36.294Z,3.70
2023-02-16T23:47:07.100Z,3.38
2023-02-16T23:49:37.462Z,3.50
2023-02-16T23:52:08.567Z,3.19
2023-02-16T23:54:39.238Z,3.46
2023-02-16T23:57:10.796Z,3.48
2023-02-16T23:59:42.749Z,3.25
